createdAt,value
2022-10-28T00:01:24.674Z,101898.81
2022-10-28T00:03:54.641Z,101897.41
2022-10-28T00:06:24.626Z,101900.09
2022-10-28T00:08:52.547Z,101887.81
2022-10-28T00:11:23.210Z,101894.94
2022-10-28T00:13:53.979Z,101898.13
2022-10-28T00:16:26.507Z,101892.94
2022-10-28T00:18:55.124Z,101891.22
2022-10-28T00:21:25.361Z,101884.97
2022-10-28T00:23:53.508Z,101881.50
2022-10-28T00:26:23.081Z,101882.28
2022-10-28T00:28:53.255Z,101881.34
2022-10-28T00:31:24.654Z,101890.34
2022-10-28T00:33:53.285Z,101882.28
2022-10-28T00:36:23.464Z,101879.03
2022-10-28T00:38:52.783Z,101886.56
2022-10-28T00:41:23.106Z,101879.34
2022-10-28T00:43:53.159Z,101884.25
2022-10-28T00:46:29.568Z,101880.78
2022-10-28T00:49:02.799Z,101878.31
2022-10-28T00:51:34.627Z,101895.28
2022-10-28T00:54:04.207Z,101888.97
2022-10-28T00:56:35.387Z,101879.38
2022-10-28T00:59:08.461Z,101879.47
2022-10-28T01:01:37.788Z,101891.59
2022-10-28T01:04:05.985Z,101893.66
2022-10-28T01:06:33.916Z,101875.88
2022-10-28T01:09:01.824Z,101876.81
2022-10-28T01:11:43.371Z,101885.56
2022-10-28T01:14:21.644Z,101892.38
2022-10-28T01:17:04.770Z,101877.06
2022-10-28T01:20:20.336Z,101888.31
2022-10-28T01:22:56.710Z,101884.16
2022-10-28T01:25:58.153Z,101883.22
2022-10-28T01:29:02.962Z,101882.03
2022-10-28T01:31:41.402Z,101872.91
2022-10-28T01:34:19.854Z,101878.94
2022-10-28T01:36:59.012Z,101876.13
2022-10-28T01:39:33.815Z,101870.75
2022-10-28T01:42:16.222Z,101870.84
2022-10-28T01:44:50.384Z,101881.72
2022-10-28T01:47:24.070Z,101893.88
2022-10-28T01:49:57.409Z,101880.31
2022-10-28T01:52:28.649Z,101873.47
2022-10-28T01:55:05.507Z,101871.75
2022-10-28T01:57:37.181Z,101877.22
2022-10-28T02:00:06.879Z,101876.16
2022-10-28T02:02:38.513Z,101875.41
2022-10-28T02:05:28.388Z,101875.41
2022-10-28T02:08:01.784Z,101874.53
2022-10-28T02:10:38.706Z,101866.56
2022-10-28T02:13:13.109Z,101862.34
2022-10-28T02:15:47.144Z,101861.59
2022-10-28T02:18:28.420Z,101858.59
2022-10-28T02:21:03.514Z,101848.72
2022-10-28T02:23:43.500Z,101854.75
2022-10-28T02:26:18.936Z,101851.94
2022-10-28T02:28:51.715Z,101853.50
2022-10-28T02:31:24.788Z,101848.69
2022-10-28T02:33:58.285Z,101854.81
2022-10-28T02:36:29.830Z,101846.84
2022-10-28T02:39:00.685Z,101841.66
2022-10-28T02:41:34.699Z,101828.44
2022-10-28T02:44:10.139Z,101833.81
2022-10-28T02:46:40.963Z,101848.50
2022-10-28T02:49:13.656Z,101845.38
2022-10-28T02:51:45.949Z,101841.91
2022-10-28T02:54:17.169Z,101838.25
2022-10-28T02:56:52.697Z,101832.31
2022-10-28T02:59:20.810Z,101831.66
2022-10-28T03:01:48.848Z,101821.31
2022-10-28T03:04:18.579Z,101825.81
2022-10-28T03:06:46.562Z,101817.75
2022-10-28T03:09:14.557Z,101816.97
2022-10-28T03:11:42.604Z,101815.50
2022-10-28T03:14:13.172Z,101819.03
2022-10-28T03:16:43.556Z,101814.41
2022-10-28T03:19:11.493Z,101800.66
2022-10-28T03:21:40.727Z,101800.44
2022-10-28T03:24:09.060Z,101804.56
2022-10-28T03:26:37.073Z,101794.13
2022-10-28T03:29:05.119Z,101796.69
2022-10-28T03:31:33.175Z,101780.34
2022-10-28T03:34:01.059Z,101790.88
2022-10-28T03:36:29.053Z,101790.03
2022-10-28T03:38:58.532Z,101791.66
2022-10-28T03:41:26.463Z,101790.38
2022-10-28T03:43:54.407Z,101798.38
2022-10-28T03:46:22.585Z,101787.69
2022-10-28T03:48:50.494Z,101790.88
2022-10-28T03:51:18.794Z,101789.78
2022-10-28T03:53:46.860Z,101787.84
2022-10-28T03:56:16.222Z,101791.28
2022-10-28T03:58:44.196Z,101782.16
2022-10-28T04:01:12.412Z,101784.84
2022-10-28T04:03:40.424Z,101785.38
2022-10-28T04:06:10.092Z,101790.66
2022-10-28T04:08:38.264Z,101781.53
2022-10-28T04:11:06.461Z,101787.88
2022-10-28T04:13:36.052Z,101784.88
2022-10-28T04:16:04.355Z,101778.63
2022-10-28T04:18:32.320Z,101765.50
2022-10-28T04:21:00.280Z,101772.28
2022-10-28T04:23:29.395Z,101768.47
2022-10-28T04:25:57.435Z,101780.22
2022-10-28T04:28:25.437Z,101776.56
2022-10-28T04:30:54.871Z,101782.91
2022-10-28T04:33:22.809Z,101786.47
2022-10-28T04:35:50.929Z,101787.13
2022-10-28T04:38:18.978Z,101788.09
2022-10-28T04:40:49.115Z,101778.59
2022-10-28T04:43:17.033Z,101779.69
2022-10-28T04:45:47.000Z,101780.66
2022-10-28T04:48:16.303Z,101786.13
2022-10-28T04:50:44.863Z,101783.75
2022-10-28T04:53:23.073Z,101788.94
2022-10-28T04:55:50.899Z,101795.38
2022-10-28T04:58:18.767Z,101797.13
2022-10-28T05:00:46.803Z,101790.06
2022-10-28T05:03:14.706Z,101789.13
2022-10-28T05:05:42.863Z,101782.88
2022-10-28T05:08:10.785Z,101783.06
2022-10-28T05:10:40.070Z,101778.84
2022-10-28T05:13:07.947Z,101782.63
2022-10-28T05:15:35.829Z,101766.88
2022-10-28T05:18:03.823Z,101762.94
2022-10-28T05:20:31.713Z,101753.16
2022-10-28T05:22:59.793Z,101759.38
2022-10-28T05:25:27.946Z,101754.56
2022-10-28T05:27:59.510Z,101744.56
2022-10-28T05:30:27.969Z,101750.13
2022-10-28T05:33:01.321Z,101750.13
2022-10-28T05:35:29.579Z,101749.25
2022-10-28T05:37:57.961Z,101759.38
2022-10-28T05:40:26.444Z,101750.47
2022-10-28T05:42:54.574Z,101749.88
2022-10-28T05:45:24.048Z,101743.09
2022-10-28T05:47:52.773Z,101735.25
2022-10-28T05:50:21.810Z,101748.91
2022-10-28T05:52:50.848Z,101739.44
2022-10-28T05:55:20.618Z,101739.72
2022-10-28T05:57:48.928Z,101734.34
2022-10-28T06:00:18.595Z,101734.34
2022-10-28T06:02:48.149Z,101730.72
2022-10-28T06:05:16.463Z,101722.66
2022-10-28T06:07:44.394Z,101718.22
2022-10-28T06:10:13.116Z,101727.03
2022-10-28T06:12:39.555Z,101734.25
2022-10-28T06:15:08.502Z,101729.94
2022-10-28T06:17:36.403Z,101733.69
2022-10-28T06:20:06.800Z,101735.50
2022-10-28T06:22:35.026Z,101734.56
2022-10-28T06:25:06.237Z,101735.72
2022-10-28T06:27:34.405Z,101737.53
2022-10-28T06:30:02.586Z,101734.22
2022-10-28T06:32:31.169Z,101735.94
2022-10-28T06:34:59.535Z,101742.47
2022-10-28T06:37:28.944Z,101744.97
2022-10-28T06:39:59.088Z,101742.16
2022-10-28T06:42:27.152Z,101741.97
2022-10-28T06:44:56.560Z,101752.41
2022-10-28T06:47:26.949Z,101744.22
2022-10-28T06:49:55.235Z,101746.72
2022-10-28T06:52:23.143Z,101750.06
2022-10-28T06:54:52.515Z,101753.53
2022-10-28T06:57:20.695Z,101752.44
2022-10-28T06:59:49.981Z,101748.81
2022-10-28T07:02:18.057Z,101755.78
2022-10-28T07:04:46.766Z,101755.69
2022-10-28T07:07:15.156Z,101756.53
2022-10-28T07:09:45.067Z,101749.03
2022-10-28T07:12:14.891Z,101749.47
2022-10-28T07:14:43.661Z,101744.75
2022-10-28T07:17:11.767Z,101749.06
2022-10-28T07:19:40.204Z,101759.53
2022-10-28T07:22:08.086Z,101760.19
2022-10-28T07:24:36.055Z,101751.91
2022-10-28T07:27:04.127Z,101739.00
2022-10-28T07:29:33.461Z,101745.03
2022-10-28T07:32:01.357Z,101749.34
2022-10-28T07:34:29.319Z,101745.47
2022-10-28T07:36:57.733Z,101749.88
2022-10-28T07:39:26.029Z,101740.75
2022-10-28T07:41:54.105Z,101737.59
2022-10-28T07:44:22.175Z,101738.16
2022-10-28T07:46:54.313Z,101747.63
2022-10-28T07:49:25.276Z,101746.53
2022-10-28T07:51:53.351Z,101744.28
2022-10-28T07:54:21.289Z,101746.63
2022-10-28T07:56:49.270Z,101739.19
2022-10-28T07:59:17.352Z,101755.78
2022-10-28T08:01:45.479Z,101741.78
2022-10-28T08:04:14.952Z,101749.50
2022-10-28T08:06:44.452Z,101745.97
2022-10-28T08:09:12.396Z,101747.38
2022-10-28T08:11:40.334Z,101734.53
2022-10-28T08:14:08.349Z,101741.06
2022-10-28T08:16:36.295Z,101740.56
2022-10-28T08:19:07.624Z,101742.56
2022-10-28T08:21:37.433Z,101745.06
2022-10-28T08:24:05.618Z,101733.94
2022-10-28T08:26:33.570Z,101734.56
2022-10-28T08:29:02.174Z,101735.19
2022-10-28T08:31:30.183Z,101743.34
2022-10-28T08:33:58.091Z,101740.94
2022-10-28T08:36:26.091Z,101732.50
2022-10-28T08:38:55.902Z,101729.13
2022-10-28T08:41:32.581Z,101728.50
2022-10-28T08:44:21.527Z,101722.28
2022-10-28T08:47:02.621Z,101723.78
2022-10-28T08:49:35.011Z,101723.44
2022-10-28T08:52:09.509Z,101720.41
2022-10-28T08:54:47.338Z,101721.81
2022-10-28T08:57:19.780Z,101718.00
2022-10-28T08:59:52.121Z,101720.09
2022-10-28T09:02:23.306Z,101717.78
2022-10-28T09:04:58.131Z,101732.66
2022-10-28T09:07:26.605Z,101732.91
2022-10-28T09:09:59.857Z,101729.84
2022-10-28T09:12:39.614Z,101721.88
2022-10-28T09:15:24.430Z,101726.69
2022-10-28T09:17:55.378Z,101725.56
2022-10-28T09:20:34.185Z,101719.94
2022-10-28T09:23:10.649Z,101712.06
2022-10-28T09:25:49.015Z,101708.00
2022-10-28T09:28:31.329Z,101711.22
2022-10-28T09:31:04.559Z,101704.44
2022-10-28T09:33:55.837Z,101711.19
2022-10-28T09:36:30.596Z,101704.69
2022-10-28T09:39:00.926Z,101700.63
2022-10-28T09:41:34.961Z,101704.06
2022-10-28T09:44:12.694Z,101706.41
2022-10-28T09:46:41.911Z,101702.81
2022-10-28T09:49:15.722Z,101708.34
2022-10-28T09:51:49.731Z,101700.81
2022-10-28T09:54:18.645Z,101700.19
2022-10-28T09:56:48.053Z,101702.63
2022-10-28T09:59:17.561Z,101704.69
2022-10-28T10:01:47.870Z,101701.63
2022-10-28T10:04:21.461Z,101706.50
2022-10-28T10:06:53.302Z,101708.56
2022-10-28T10:09:24.960Z,101709.75
2022-10-28T10:11:57.135Z,101706.81
2022-10-28T10:14:30.046Z,101714.19
2022-10-28T10:17:01.445Z,101711.66
2022-10-28T10:19:29.518Z,101691.22
2022-10-28T10:21:58.732Z,101698.19
2022-10-28T10:24:32.066Z,101701.50
2022-10-28T10:27:05.159Z,101695.34
2022-10-28T10:29:33.833Z,101698.91
2022-10-28T10:32:19.059Z,101697.66
2022-10-28T10:34:55.415Z,101688.16
2022-10-28T10:37:24.944Z,101694.88
2022-10-28T10:40:06.635Z,101698.91
2022-10-28T10:42:42.695Z,101685.97
2022-10-28T10:45:25.913Z,101678.28
2022-10-28T10:48:15.031Z,101677.75
2022-10-28T10:50:45.342Z,101672.09
2022-10-28T10:53:24.038Z,101673.50
2022-10-28T10:55:55.460Z,101674.56
2022-10-28T10:58:27.785Z,101672.28
2022-10-28T11:00:58.327Z,101663.50
2022-10-28T11:03:29.532Z,101668.69
2022-10-28T11:06:22.008Z,101659.88
2022-10-28T11:08:47.217Z,101651.75
2022-10-28T11:11:20.029Z,101649.91
2022-10-28T11:14:03.288Z,101648.66
2022-10-28T11:16:31.553Z,101656.09
2022-10-28T11:18:59.579Z,101650.22
2022-10-28T11:21:48.070Z,101653.56
2022-10-28T11:24:31.498Z,101653.56
2022-10-28T11:27:10.430Z,101649.84
2022-10-28T11:29:40.237Z,101652.13
2022-10-28T11:33:01.328Z,101646.84
2022-10-28T11:35:43.616Z,101648.69
2022-10-28T11:38:24.569Z,101647.13
2022-10-28T11:41:07.794Z,101645.25
2022-10-28T11:43:48.633Z,101647.41
2022-10-28T11:46:27.961Z,101646.38
2022-10-28T11:49:10.867Z,101636.63
2022-10-28T11:51:47.107Z,101634.38
2022-10-28T11:54:29.527Z,101636.94
2022-10-28T11:57:04.349Z,101638.63
2022-10-28T12:00:02.989Z,101637.34
2022-10-28T12:02:57.159Z,101623.94
2022-10-28T12:05:32.012Z,101624.09
2022-10-28T12:08:22.858Z,101624.50
2022-10-28T12:11:08.668Z,101629.19
2022-10-28T12:13:45.899Z,101623.91
2022-10-28T12:16:19.652Z,101626.63
2022-10-28T12:18:55.959Z,101632.72
2022-10-28T12:21:32.758Z,101636.81
2022-10-28T12:24:01.604Z,101631.06
2022-10-28T12:26:38.958Z,101633.09
2022-10-28T12:29:15.067Z,101627.56
2022-10-28T12:31:47.542Z,101618.13
2022-10-28T12:34:24.588Z,101615.84
2022-10-28T12:36:58.383Z,101622.75
2022-10-28T12:39:32.446Z,101619.19
2022-10-28T12:42:06.257Z,101614.47
2022-10-28T12:44:37.873Z,101611.59
2022-10-28T12:47:18.952Z,101617.88
2022-10-28T12:50:01.505Z,101609.03
2022-10-28T12:52:39.596Z,101613.44
2022-10-28T12:55:31.015Z,101607.31
2022-10-28T12:58:04.888Z,101610.22
2022-10-28T13:00:38.296Z,101612.53
2022-10-28T13:03:08.823Z,101604.78
2022-10-28T13:05:45.246Z,101607.13
2022-10-28T13:08:39.470Z,101604.78
2022-10-28T13:11:45.315Z,101603.66
2022-10-28T13:14:29.991Z,101611.41
2022-10-28T13:17:19.756Z,101605.06
2022-10-28T13:20:22.556Z,101606.34
2022-10-28T13:23:11.937Z,101600.75
2022-10-28T13:25:54.877Z,101591.84
2022-10-28T13:28:30.662Z,101589.50
2022-10-28T13:31:00.821Z,101589.63
2022-10-28T13:33:30.869Z,101587.44
2022-10-28T13:36:11.829Z,101586.56
2022-10-28T13:38:41.725Z,101591.78
2022-10-28T13:41:28.363Z,101597.78
2022-10-28T13:44:27.228Z,101587.06
2022-10-28T13:47:26.483Z,101584.38
2022-10-28T13:50:15.628Z,101583.69
2022-10-28T13:52:45.541Z,101572.41
2022-10-28T13:55:25.090Z,101572.69
2022-10-28T13:58:00.253Z,101574.31
2022-10-28T14:00:38.911Z,101570.34
2022-10-28T14:03:17.852Z,101568.22
2022-10-28T14:05:55.209Z,101577.09
2022-10-28T14:08:29.476Z,101579.28
2022-10-28T14:11:05.326Z,101581.44
2022-10-28T14:13:36.935Z,101569.69
2022-10-28T14:16:22.910Z,101575.84
2022-10-28T14:19:01.439Z,101566.41
2022-10-28T14:21:45.912Z,101564.00
2022-10-28T14:24:30.766Z,101564.00
2022-10-28T14:27:30.823Z,101556.00
2022-10-28T14:30:24.211Z,101558.16
2022-10-28T14:33:20.613Z,101553.63
2022-10-28T14:35:53.169Z,101564.03
2022-10-28T14:38:50.836Z,101563.47
2022-10-28T14:41:36.696Z,101566.03
2022-10-28T14:44:25.126Z,101568.22
2022-10-28T14:47:08.300Z,101559.22
2022-10-28T14:49:38.031Z,101559.22
2022-10-28T14:52:08.996Z,101557.66
2022-10-28T14:54:44.845Z,101558.78
2022-10-28T14:57:12.874Z,101556.53
2022-10-28T14:59:45.502Z,101558.97
2022-10-28T15:02:17.443Z,101551.53
2022-10-28T15:04:47.575Z,101554.88
2022-10-28T15:07:17.590Z,101554.41
2022-10-28T15:09:48.837Z,101551.28
2022-10-28T15:12:19.074Z,101553.72
2022-10-28T15:14:50.881Z,101546.00
2022-10-28T15:17:20.678Z,101548.13
2022-10-28T15:19:50.432Z,101553.28
2022-10-28T15:22:21.705Z,101540.44
2022-10-28T15:25:00.784Z,101545.41
2022-10-28T15:27:31.830Z,101540.16
2022-10-28T15:30:01.398Z,101550.41
2022-10-28T15:32:32.343Z,101544.56
2022-10-28T15:35:01.028Z,101542.56
2022-10-28T15:37:31.379Z,101540.41
2022-10-28T15:40:20.509Z,101542.13
2022-10-28T15:42:53.618Z,101558.09
2022-10-28T15:45:26.073Z,101548.66
2022-10-28T15:47:55.272Z,101551.91
2022-10-28T15:50:32.539Z,101548.88
2022-10-28T15:53:23.445Z,101561.00
2022-10-28T15:56:10.677Z,101557.09
2022-10-28T15:58:40.685Z,101548.69
2022-10-28T16:01:28.987Z,101549.09
2022-10-28T16:03:57.312Z,101547.91
2022-10-28T16:06:31.030Z,101551.75
2022-10-28T16:09:05.550Z,101553.03
2022-10-28T16:11:36.551Z,101561.56
2022-10-28T16:14:14.881Z,101553.97
2022-10-28T16:16:45.042Z,101555.50
2022-10-28T16:19:26.936Z,101556.66
2022-10-28T16:21:54.951Z,101553.75
2022-10-28T16:24:22.836Z,101555.88
2022-10-28T16:26:50.927Z,101559.50
2022-10-28T16:29:18.923Z,101551.69
2022-10-28T16:31:52.199Z,101557.97
2022-10-28T16:34:20.360Z,101555.41
2022-10-28T16:36:48.274Z,101558.34
2022-10-28T16:39:16.369Z,101569.16
2022-10-28T16:41:44.350Z,101562.88
2022-10-28T16:44:17.920Z,101565.50
2022-10-28T16:46:45.852Z,101569.16
2022-10-28T16:49:15.216Z,101560.31
2022-10-28T16:51:45.026Z,101566.59
2022-10-28T16:54:13.040Z,101565.59
2022-10-28T16:56:40.879Z,101563.03
2022-10-28T16:59:08.869Z,101564.16
2022-10-28T17:01:36.955Z,101572.53
2022-10-28T17:04:05.245Z,101571.94
2022-10-28T17:06:39.121Z,101587.72
2022-10-28T17:09:07.474Z,101596.22
2022-10-28T17:11:35.469Z,101583.97
2022-10-28T17:14:04.047Z,101587.06
2022-10-28T17:16:31.966Z,101588.06
2022-10-28T17:19:00.075Z,101595.91
2022-10-28T17:21:27.966Z,101591.34
2022-10-28T17:23:57.224Z,101584.94
2022-10-28T17:26:25.067Z,101591.34
2022-10-28T17:28:53.895Z,101592.91
2022-10-28T17:31:24.878Z,101591.09
2022-10-28T17:33:55.187Z,101588.25
2022-10-28T17:36:24.237Z,101594.53
2022-10-28T17:38:52.101Z,101589.69
2022-10-28T17:41:21.726Z,101594.84
2022-10-28T17:43:52.958Z,101591.53
2022-10-28T17:46:21.517Z,101592.19
2022-10-28T17:48:49.867Z,101590.06
2022-10-28T17:51:20.187Z,101599.56
2022-10-28T17:53:48.368Z,101604.16
2022-10-28T17:56:16.398Z,101604.22
2022-10-28T17:58:45.684Z,101603.97
2022-10-28T18:01:13.885Z,101602.44
2022-10-28T18:03:41.943Z,101604.22
2022-10-28T18:06:13.450Z,101604.78
2022-10-28T18:08:43.972Z,101604.78
2022-10-28T18:11:14.431Z,101608.50
2022-10-28T18:13:46.094Z,101604.09
2022-10-28T18:16:15.640Z,101605.41
2022-10-28T18:18:44.058Z,101597.03
2022-10-28T18:21:15.745Z,101594.88
2022-10-28T18:23:43.675Z,101592.75
2022-10-28T18:26:13.585Z,101598.31
2022-10-28T18:28:43.508Z,101612.88
2022-10-28T18:31:15.198Z,101609.03
2022-10-28T18:33:45.285Z,101608.03
2022-10-28T18:36:15.215Z,101606.88
2022-10-28T18:38:43.321Z,101613.59
2022-10-28T18:41:12.456Z,101613.34
2022-10-28T18:43:40.598Z,101617.03
2022-10-28T18:46:09.378Z,101619.75
2022-10-28T18:48:38.717Z,101618.31
2022-10-28T18:51:09.523Z,101623.88
2022-10-28T18:53:38.587Z,101624.00
2022-10-28T18:56:07.547Z,101620.88
2022-10-28T18:58:35.963Z,101632.09
2022-10-28T19:01:09.050Z,101633.84
2022-10-28T19:03:39.298Z,101643.50
2022-10-28T19:06:09.475Z,101651.72
2022-10-28T19:08:37.743Z,101644.63
2022-10-28T19:11:06.887Z,101641.72
2022-10-28T19:13:36.688Z,101647.84
2022-10-28T19:16:05.568Z,101643.31
2022-10-28T19:18:35.652Z,101649.97
2022-10-28T19:21:07.676Z,101650.72
2022-10-28T19:23:35.831Z,101651.00
2022-10-28T19:26:04.886Z,101649.69
2022-10-28T19:28:39.476Z,101654.19
2022-10-28T19:31:09.838Z,101663.31
2022-10-28T19:33:39.362Z,101671.69
2022-10-28T19:36:11.735Z,101676.81
2022-10-28T19:38:39.935Z,101680.63
2022-10-28T19:41:10.197Z,101683.03
2022-10-28T19:43:38.428Z,101684.00
2022-10-28T19:46:09.841Z,101685.53
2022-10-28T19:48:38.431Z,101687.22
2022-10-28T19:51:06.951Z,101683.88
2022-10-28T19:53:38.874Z,101688.28
2022-10-28T19:56:07.275Z,101689.53
2022-10-28T19:58:36.492Z,101698.91
2022-10-28T20:01:07.185Z,101719.81
2022-10-28T20:03:36.889Z,101714.06
2022-10-28T20:06:08.514Z,101713.47
2022-10-28T20:08:39.288Z,101721.59
2022-10-28T20:11:08.860Z,101732.78
2022-10-28T20:13:37.754Z,101731.81
2022-10-28T20:16:08.107Z,101737.41
2022-10-28T20:18:36.010Z,101739.41
2022-10-28T20:21:05.555Z,101743.84
2022-10-28T20:23:35.747Z,101744.09
2022-10-28T20:26:05.685Z,101742.81
2022-10-28T20:28:34.008Z,101748.91
2022-10-28T20:31:03.472Z,101749.22
2022-10-28T20:33:32.069Z,101749.69
2022-10-28T20:36:00.360Z,101764.81
2022-10-28T20:38:29.202Z,101771.47
2022-10-28T20:40:58.650Z,101781.34
2022-10-28T20:43:29.977Z,101781.34
2022-10-28T20:45:59.790Z,101785.44
2022-10-28T20:48:28.833Z,101788.84
2022-10-28T20:50:58.661Z,101792.91
2022-10-28T20:53:28.752Z,101801.16
2022-10-28T20:55:58.483Z,101801.16
2022-10-28T20:58:29.894Z,101797.09
2022-10-28T21:01:03.768Z,101799.47
2022-10-28T21:03:31.918Z,101787.25
2022-10-28T21:06:00.228Z,101792.81
2022-10-28T21:08:28.221Z,101800.44
2022-10-28T21:10:56.289Z,101810.53
2022-10-28T21:13:24.130Z,101819.50
2022-10-28T21:15:56.601Z,101827.03
2022-10-28T21:18:26.615Z,101826.28
2022-10-28T21:20:57.548Z,101823.56
2022-10-28T21:23:26.312Z,101830.00
2022-10-28T21:25:54.745Z,101821.50
2022-10-28T21:28:23.105Z,101825.34
2022-10-28T21:30:51.366Z,101833.81
2022-10-28T21:33:20.527Z,101833.56
2022-10-28T21:35:55.947Z,101825.84
2022-10-28T21:38:23.850Z,101839.63
2022-10-28T21:40:59.859Z,101853.84
2022-10-28T21:43:29.467Z,101853.84
2022-10-28T21:45:57.642Z,101849.94
2022-10-28T21:48:28.092Z,101867.63
2022-10-28T21:50:57.428Z,101865.41
2022-10-28T21:53:25.769Z,101872.69
2022-10-28T21:55:55.635Z,101866.78
2022-10-28T21:58:23.613Z,101862.50
2022-10-28T22:00:51.758Z,101867.63
2022-10-28T22:03:19.904Z,101870.94
2022-10-28T22:05:52.515Z,101870.59
2022-10-28T22:08:20.622Z,101872.44
2022-10-28T22:10:48.521Z,101872.19
2022-10-28T22:13:16.399Z,101880.06
2022-10-28T22:15:44.309Z,101878.19
2022-10-28T22:18:12.199Z,101874.78
2022-10-28T22:20:40.148Z,101874.53
2022-10-28T22:23:09.547Z,101880.81
2022-10-28T22:25:37.459Z,101882.38
2022-10-28T22:28:05.889Z,101877.09
2022-10-28T22:30:33.972Z,101873.31
2022-10-28T22:33:01.891Z,101869.25
2022-10-28T22:35:29.913Z,101867.63
2022-10-28T22:37:58.543Z,101873.53
2022-10-28T22:40:29.433Z,101873.66
2022-10-28T22:42:57.258Z,101869.59
2022-10-28T22:45:25.120Z,101867.28
2022-10-28T22:47:53.388Z,101864.66
2022-10-28T22:50:21.737Z,101880.63
2022-10-28T22:52:49.695Z,101865.47
2022-10-28T22:55:17.685Z,101872.47
2022-10-28T22:57:47.086Z,101861.88
2022-10-28T23:00:15.769Z,101857.94
2022-10-28T23:02:43.809Z,101868.97
2022-10-28T23:05:11.895Z,101870.06
2022-10-28T23:07:39.965Z,101874.56
2022-10-28T23:10:08.750Z,101872.97
2022-10-28T23:12:36.649Z,101873.19
2022-10-28T23:15:06.944Z,101871.25
2022-10-28T23:17:34.846Z,101866.59
2022-10-28T23:20:02.768Z,101871.53
2022-10-28T23:22:30.828Z,101890.09
2022-10-28T23:24:58.656Z,101885.66
2022-10-28T23:27:26.500Z,101885.53
2022-10-28T23:29:54.688Z,101881.47
2022-10-28T23:32:23.903Z,101890.06
2022-10-28T23:34:51.734Z,101894.75
2022-10-28T23:37:19.786Z,101897.69
2022-10-28T23:39:47.593Z,101901.31
2022-10-28T23:42:15.476Z,101885.00
2022-10-28T23:44:43.444Z,101890.97
2022-10-28T23:47:11.296Z,101893.56
2022-10-28T23:49:40.718Z,101892.03
2022-10-28T23:52:08.691Z,101887.19
2022-10-28T23:54:37.246Z,101905.25
2022-10-28T23:57:05.187Z,101897.91
2022-10-28T23:59:33.160Z,101901.69
